Portada
METAR-TAF:

METAR-TAF

Aeroports :

Munda, New Georgia, Illes Salomó

latitud: 8-19-41S, longitud: 157-15-47E, altitud: 3 m

Observació

L'informe es va fer fa 50 minuts, a les 22:00 UTC
Vent 5 kt del Est
Temperatura 28°C
Humitat 79%
Pressió 1011 hPa
Visibilitat 10 km o més
Escasses núvols a una alçada de 1700 ft
Cel ennuvolat a una alçada de 10000 ft

METAR: AGGM 272200Z 09005KT 9999 FEW017 BKN100 28/24 Q1011

Hora: 09:50 (22:50 UTC)

Pronòstic

L'informe es va fer fa 5 hores i 35 minuts, a les 17:15 UTC
Pronòstic vàlid del 27 a les 18 UTC al 28 a les 18 UTC
Vent 10 kt del Est
Visibilitat: 5000 m
Núvols disperses a una alçada de 1700 ft
Cel ennuvolat a una alçada de 3000 ft
Cel ennuvolat a una alçada de 1500 ft
Escasses núvols a una alçada de 1600 ft, Cumulonimbus.
xàfecs de pluja

TAF: AGGM 271715Z 2718/2818 09010KT 9999 -SHRA SCT017 BKN030 INTER 2718/2806 5000 TSSH BKN015 FEW016CB

Observacions i pronòstics meteorològics de més de 4000 aeroports (METAR i TAF).

Les estacions disponibles són els punts grocs i vermells al mapa.

Posi el ratolí al punt desitjat per veure el nom de l'estació.

Feu clic per veure les observacions i els pronòstics meteorològics.

Per canviar el mapa: feu clic els botons verds amb una creu de color negre per apropar; al botó verd amb un guió per allunyar la imatge; o en les fletxes verdes per a mapes adjacents.


METAR-TAF: